sensor_id;sensor_type;location;lat;lon;timestamp;P1;durP1;ratioP1;P2;durP2;ratioP2
76995;SDS011;65929;49.062;10.338;2023-04-15T00:00:37;7.47;;;4.30;;
76995;SDS011;65929;49.062;10.338;2023-04-15T00:01:38;7.18;;;4.50;;
76995;SDS011;65929;49.062;10.338;2023-04-15T00:02:39;6.55;;;3.55;;
76995;SDS011;65929;49.062;10.338;2023-04-15T00:03:40;9.48;;;4.65;;
76995;SDS011;65929;49.062;10.338;2023-04-15T00:04:41;6.35;;;4.25;;
76995;SDS011;65929;49.062;10.338;2023-04-15T00:05:42;8.52;;;4.53;;
76995;SDS011;65929;49.062;10.338;2023-04-15T00:06:48;6.85;;;4.72;;
76995;SDS011;65929;49.062;10.338;2023-04-15T00:07:50;5.53;;;3.70;;
76995;SDS011;65929;49.062;10.338;2023-04-15T00:08:52;7.60;;;4.32;;
76995;SDS011;65929;49.062;10.338;2023-04-15T00:09:54;8.55;;;4.50;;
76995;SDS011;65929;49.062;10.338;2023-04-15T00:10:56;6.32;;;4.80;;
76995;SDS011;65929;49.062;10.338;2023-04-15T00:12:01;6.15;;;4.07;;
76995;SDS011;65929;49.062;10.338;2023-04-15T00:13:02;9.27;;;4.53;;
76995;SDS011;65929;49.062;10.338;2023-04-15T00:14:08;6.60;;;4.03;;
76995;SDS011;65929;49.062;10.338;2023-04-15T00:15:09;7.63;;;4.50;;
76995;SDS011;65929;49.062;10.338;2023-04-15T00:16:11;7.53;;;4.60;;
76995;SDS011;65929;49.062;10.338;2023-04-15T00:17:16;6.65;;;4.22;;
76995;SDS011;65929;49.062;10.338;2023-04-15T00:18:17;6.43;;;4.25;;
76995;SDS011;65929;49.062;10.338;2023-04-15T00:19:18;8.82;;;4.07;;
76995;SDS011;65929;49.062;10.338;2023-04-15T00:20:19;5.72;;;3.90;;
76995;SDS011;65929;49.062;10.338;2023-04-15T00:21:21;5.50;;;3.72;;
76995;SDS011;65929;49.062;10.338;2023-04-15T00:22:21;8.70;;;4.68;;
76995;SDS011;65929;49.062;10.338;2023-04-15T00:23:23;6.30;;;3.92;;
76995;SDS011;65929;49.062;10.338;2023-04-15T00:24:24;6.50;;;3.85;;
76995;SDS011;65929;49.062;10.338;2023-04-15T00:25:25;7.85;;;4.57;;
76995;SDS011;65929;49.062;10.338;2023-04-15T00:26:26;7.18;;;4.50;;
76995;SDS011;65929;49.062;10.338;2023-04-15T00:27:27;7.25;;;4.15;;
76995;SDS011;65929;49.062;10.338;2023-04-15T00:28:28;6.80;;;4.50;;
76995;SDS011;65929;49.062;10.338;2023-04-15T00:29:32;8.20;;;4.55;;
76995;SDS011;65929;49.062;10.338;2023-04-15T00:30:35;6.95;;;4.45;;
76995;SDS011;65929;49.062;10.338;2023-04-15T00:31:36;5.75;;;4.10;;
76995;SDS011;65929;49.062;10.338;2023-04-15T00:32:37;8.80;;;5.13;;
76995;SDS011;65929;49.062;10.338;2023-04-15T00:33:38;7.25;;;4.28;;
76995;SDS011;65929;49.062;10.338;2023-04-15T00:34:39;7.55;;;4.72;;
76995;SDS011;65929;49.062;10.338;2023-04-15T00:35:40;6.50;;;4.38;;
76995;SDS011;65929;49.062;10.338;2023-04-15T00:36:42;6.88;;;3.45;;
76995;SDS011;65929;49.062;10.338;2023-04-15T00:37:43;7.15;;;4.00;;
76995;SDS011;65929;49.062;10.338;2023-04-15T00:38:44;8.98;;;4.32;;
76995;SDS011;65929;49.062;10.338;2023-04-15T00:39:45;6.38;;;4.35;;
76995;SDS011;65929;49.062;10.338;2023-04-15T00:40:46;7.25;;;4.57;;
76995;SDS011;65929;49.062;10.338;2023-04-15T00:41:48;7.30;;;4.45;;
76995;SDS011;65929;49.062;10.338;2023-04-15T00:42:49;6.47;;;3.90;;
76995;SDS011;65929;49.062;10.338;2023-04-15T00:43:50;7.53;;;4.13;;
76995;SDS011;65929;49.062;10.338;2023-04-15T00:44:53;6.53;;;4.00;;
76995;SDS011;65929;49.062;10.338;2023-04-15T00:45:54;6.60;;;4.25;;
76995;SDS011;65929;49.062;10.338;2023-04-15T00:46:59;6.80;;;4.43;;
76995;SDS011;65929;49.062;10.338;2023-04-15T00:48:00;6.43;;;4.05;;
76995;SDS011;65929;49.062;10.338;2023-04-15T00:49:03;8.18;;;4.60;;
76995;SDS011;65929;49.062;10.338;2023-04-15T00:50:05;6.80;;;4.28;;
76995;SDS011;65929;49.062;10.338;2023-04-15T00:51:07;7.18;;;4.10;;
76995;SDS011;65929;49.062;10.338;2023-04-15T00:52:08;7.22;;;4.25;;
76995;SDS011;65929;49.062;10.338;2023-04-15T00:53:09;7.18;;;4.28;;
76995;SDS011;65929;49.062;10.338;2023-04-15T00:54:10;6.15;;;4.30;;
76995;SDS011;65929;49.062;10.338;2023-04-15T00:55:11;8.65;;;4.45;;
76995;SDS011;65929;49.062;10.338;2023-04-15T00:56:12;6.65;;;4.57;;
76995;SDS011;65929;49.062;10.338;2023-04-15T00:57:14;8.23;;;4.28;;
76995;SDS011;65929;49.062;10.338;2023-04-15T00:58:15;7.43;;;4.45;;
76995;SDS011;65929;49.062;10.338;2023-04-15T00:59:16;6.75;;;4.40;;
76995;SDS011;65929;49.062;10.338;2023-04-15T01:00:19;7.63;;;4.40;;
76995;SDS011;65929;49.062;10.338;2023-04-15T01:01:20;6.10;;;4.20;;
76995;SDS011;65929;49.062;10.338;2023-04-15T01:02:21;5.75;;;3.92;;
76995;SDS011;65929;49.062;10.338;2023-04-15T01:03:23;7.10;;;4.10;;
76995;SDS011;65929;49.062;10.338;2023-04-15T01:04:24;8.57;;;4.13;;
76995;SDS011;65929;49.062;10.338;2023-04-15T01:05:25;7.22;;;4.10;;
76995;SDS011;65929;49.062;10.338;2023-04-15T01:06:27;7.97;;;4.45;;
76995;SDS011;65929;49.062;10.338;2023-04-15T01:07:28;7.35;;;4.20;;
76995;SDS011;65929;49.062;10.338;2023-04-15T01:08:29;7.43;;;3.85;;
76995;SDS011;65929;49.062;10.338;2023-04-15T01:09:31;7.55;;;3.58;;
76995;SDS011;65929;49.062;10.338;2023-04-15T01:10:32;8.10;;;4.50;;
76995;SDS011;65929;49.062;10.338;2023-04-15T01:11:33;9.30;;;5.18;;
76995;SDS011;65929;49.062;10.338;2023-04-15T01:12:34;10.25;;;6.03;;
76995;SDS011;65929;49.062;10.338;2023-04-15T01:13:36;9.00;;;5.05;;
76995;SDS011;65929;49.062;10.338;2023-04-15T01:14:38;7.43;;;4.32;;
76995;SDS011;65929;49.062;10.338;2023-04-15T01:15:40;7.93;;;4.60;;
76995;SDS011;65929;49.062;10.338;2023-04-15T01:16:41;6.88;;;4.13;;
76995;SDS011;65929;49.062;10.338;2023-04-15T01:17:44;7.40;;;4.00;;
76995;SDS011;65929;49.062;10.338;2023-04-15T01:18:45;6.97;;;4.32;;
76995;SDS011;65929;49.062;10.338;2023-04-15T01:19:46;7.05;;;4.30;;
76995;SDS011;65929;49.062;10.338;2023-04-15T01:20:47;7.15;;;3.85;;
76995;SDS011;65929;49.062;10.338;2023-04-15T01:21:49;6.78;;;4.20;;
76995;SDS011;65929;49.062;10.338;2023-04-15T01:22:49;6.03;;;3.67;;
76995;SDS011;65929;49.062;10.338;2023-04-15T01:23:51;9.27;;;3.75;;
76995;SDS011;65929;49.062;10.338;2023-04-15T01:24:57;6.28;;;3.42;;
76995;SDS011;65929;49.062;10.338;2023-04-15T01:26:10;6.72;;;3.80;;
76995;SDS011;65929;49.062;10.338;2023-04-15T01:27:11;6.65;;;3.90;;
76995;SDS011;65929;49.062;10.338;2023-04-15T01:28:12;7.25;;;3.85;;
76995;SDS011;65929;49.062;10.338;2023-04-15T01:29:13;7.85;;;4.10;;
76995;SDS011;65929;49.062;10.338;2023-04-15T01:30:14;7.57;;;4.40;;
76995;SDS011;65929;49.062;10.338;2023-04-15T01:31:16;7.63;;;4.00;;
76995;SDS011;65929;49.062;10.338;2023-04-15T01:32:17;5.22;;;3.58;;
76995;SDS011;65929;49.062;10.338;2023-04-15T01:33:18;5.80;;;3.60;;
76995;SDS011;65929;49.062;10.338;2023-04-15T01:34:19;6.82;;;4.50;;
76995;SDS011;65929;49.062;10.338;2023-04-15T01:35:20;8.55;;;4.20;;
76995;SDS011;65929;49.062;10.338;2023-04-15T01:36:21;7.10;;;3.88;;
76995;SDS011;65929;49.062;10.338;2023-04-15T01:37:22;6.88;;;4.20;;
76995;SDS011;65929;49.062;10.338;2023-04-15T01:38:24;6.35;;;3.92;;
76995;SDS011;65929;49.062;10.338;2023-04-15T01:39:25;6.68;;;4.10;;
76995;SDS011;65929;49.062;10.338;2023-04-15T01:40:26;8.85;;;3.97;;
76995;SDS011;65929;49.062;10.338;2023-04-15T01:41:29;8.43;;;4.10;;
76995;SDS011;65929;49.062;10.338;2023-04-15T01:42:30;7.95;;;4.32;;
76995;SDS011;65929;49.062;10.338;2023-04-15T01:43:31;6.78;;;4.28;;
76995;SDS011;65929;49.062;10.338;2023-04-15T01:44:32;6.97;;;4.22;;
76995;SDS011;65929;49.062;10.338;2023-04-15T01:45:33;7.60;;;4.13;;
76995;SDS011;65929;49.062;10.338;2023-04-15T01:46:35;7.43;;;3.85;;
76995;SDS011;65929;49.062;10.338;2023-04-15T01:47:36;8.63;;;4.25;;
76995;SDS011;65929;49.062;10.338;2023-04-15T01:48:37;8.50;;;4.05;;
76995;SDS011;65929;49.062;10.338;2023-04-15T01:49:38;6.47;;;3.95;;
76995;SDS011;65929;49.062;10.338;2023-04-15T01:50:39;6.47;;;3.75;;
76995;SDS011;65929;49.062;10.338;2023-04-15T01:51:40;7.63;;;4.13;;
76995;SDS011;65929;49.062;10.338;2023-04-15T01:52:41;6.78;;;3.88;;
76995;SDS011;65929;49.062;10.338;2023-04-15T01:53:42;8.20;;;4.30;;
76995;SDS011;65929;49.062;10.338;2023-04-15T01:54:43;8.30;;;4.10;;
76995;SDS011;65929;49.062;10.338;2023-04-15T01:55:44;6.80;;;3.88;;
76995;SDS011;65929;49.062;10.338;2023-04-15T01:56:47;7.50;;;4.25;;
76995;SDS011;65929;49.062;10.338;2023-04-15T01:57:48;6.43;;;3.75;;
76995;SDS011;65929;49.062;10.338;2023-04-15T01:58:49;7.60;;;4.00;;
76995;SDS011;65929;49.062;10.338;2023-04-15T01:59:50;5.97;;;3.80;;
76995;SDS011;65929;49.062;10.338;2023-04-15T02:00:51;7.85;;;4.45;;
76995;SDS011;65929;49.062;10.338;2023-04-15T02:01:52;7.72;;;4.72;;
76995;SDS011;65929;49.062;10.338;2023-04-15T02:02:54;7.88;;;4.13;;
76995;SDS011;65929;49.062;10.338;2023-04-15T02:03:55;6.38;;;3.92;;
76995;SDS011;65929;49.062;10.338;2023-04-15T02:04:56;6.75;;;4.10;;
76995;SDS011;65929;49.062;10.338;2023-04-15T02:05:57;7.93;;;3.88;;
76995;SDS011;65929;49.062;10.338;2023-04-15T02:06:58;8.32;;;3.80;;
76995;SDS011;65929;49.062;10.338;2023-04-15T02:07:59;7.45;;;4.28;;
76995;SDS011;65929;49.062;10.338;2023-04-15T02:09:00;7.80;;;4.47;;
76995;SDS011;65929;49.062;10.338;2023-04-15T02:10:01;6.18;;;3.95;;
76995;SDS011;65929;49.062;10.338;2023-04-15T02:11:03;6.07;;;3.53;;
76995;SDS011;65929;49.062;10.338;2023-04-15T02:12:05;6.75;;;3.75;;
76995;SDS011;65929;49.062;10.338;2023-04-15T02:13:06;8.55;;;3.88;;
76995;SDS011;65929;49.062;10.338;2023-04-15T02:14:07;6.18;;;3.70;;
76995;SDS011;65929;49.062;10.338;2023-04-15T02:15:09;7.00;;;3.85;;
76995;SDS011;65929;49.062;10.338;2023-04-15T02:16:16;7.72;;;4.03;;
76995;SDS011;65929;49.062;10.338;2023-04-15T02:17:18;9.00;;;4.15;;
76995;SDS011;65929;49.062;10.338;2023-04-15T02:18:19;8.65;;;4.25;;
76995;SDS011;65929;49.062;10.338;2023-04-15T02:19:20;6.57;;;4.38;;
76995;SDS011;65929;49.062;10.338;2023-04-15T02:20:21;5.90;;;3.78;;
76995;SDS011;65929;49.062;10.338;2023-04-15T02:21:22;8.57;;;4.40;;
76995;SDS011;65929;49.062;10.338;2023-04-15T02:22:25;7.57;;;4.40;;
76995;SDS011;65929;49.062;10.338;2023-04-15T02:23:27;6.65;;;3.83;;
76995;SDS011;65929;49.062;10.338;2023-04-15T02:24:28;6.88;;;4.32;;
76995;SDS011;65929;49.062;10.338;2023-04-15T02:25:30;6.47;;;4.00;;
76995;SDS011;65929;49.062;10.338;2023-04-15T02:26:31;7.03;;;3.97;;
76995;SDS011;65929;49.062;10.338;2023-04-15T02:27:33;6.63;;;4.20;;
76995;SDS011;65929;49.062;10.338;2023-04-15T02:28:35;6.50;;;3.88;;
76995;SDS011;65929;49.062;10.338;2023-04-15T02:29:36;5.03;;;3.30;;
76995;SDS011;65929;49.062;10.338;2023-04-15T02:30:37;6.63;;;3.85;;
76995;SDS011;65929;49.062;10.338;2023-04-15T02:31:39;6.68;;;3.92;;
76995;SDS011;65929;49.062;10.338;2023-04-15T02:32:41;6.97;;;3.80;;
76995;SDS011;65929;49.062;10.338;2023-04-15T02:33:44;6.38;;;3.97;;
76995;SDS011;65929;49.062;10.338;2023-04-15T02:34:45;7.05;;;3.92;;
76995;SDS011;65929;49.062;10.338;2023-04-15T02:35:46;5.78;;;3.97;;
76995;SDS011;65929;49.062;10.338;2023-04-15T02:36:47;7.18;;;4.38;;
76995;SDS011;65929;49.062;10.338;2023-04-15T02:37:48;7.82;;;4.00;;
76995;SDS011;65929;49.062;10.338;2023-04-15T02:38:50;8.10;;;4.45;;
76995;SDS011;65929;49.062;10.338;2023-04-15T02:39:50;7.43;;;4.00;;
76995;SDS011;65929;49.062;10.338;2023-04-15T02:40:51;6.47;;;3.97;;
76995;SDS011;65929;49.062;10.338;2023-04-15T02:41:52;6.18;;;3.70;;
76995;SDS011;65929;49.062;10.338;2023-04-15T02:42:55;8.15;;;4.57;;
76995;SDS011;65929;49.062;10.338;2023-04-15T02:43:56;6.45;;;4.45;;
76995;SDS011;65929;49.062;10.338;2023-04-15T02:44:57;9.57;;;4.40;;
76995;SDS011;65929;49.062;10.338;2023-04-15T02:45:58;7.65;;;4.15;;
76995;SDS011;65929;49.062;10.338;2023-04-15T02:46:59;7.45;;;4.38;;
76995;SDS011;65929;49.062;10.338;2023-04-15T02:48:00;6.03;;;3.90;;
76995;SDS011;65929;49.062;10.338;2023-04-15T02:49:05;5.85;;;3.72;;
76995;SDS011;65929;49.062;10.338;2023-04-15T02:50:06;6.80;;;4.03;;
76995;SDS011;65929;49.062;10.338;2023-04-15T02:51:12;7.13;;;3.80;;
76995;SDS011;65929;49.062;10.338;2023-04-15T02:52:13;6.13;;;3.58;;
76995;SDS011;65929;49.062;10.338;2023-04-15T02:53:14;7.07;;;4.07;;
76995;SDS011;65929;49.062;10.338;2023-04-15T02:54:16;5.95;;;3.60;;
76995;SDS011;65929;49.062;10.338;2023-04-15T02:55:17;5.85;;;3.72;;
76995;SDS011;65929;49.062;10.338;2023-04-15T02:56:18;6.93;;;4.07;;
76995;SDS011;65929;49.062;10.338;2023-04-15T02:57:19;5.32;;;3.78;;
76995;SDS011;65929;49.062;10.338;2023-04-15T02:58:22;5.97;;;3.78;;
76995;SDS011;65929;49.062;10.338;2023-04-15T02:59:23;4.35;;;3.20;;
76995;SDS011;65929;49.062;10.338;2023-04-15T03:00:24;5.10;;;3.55;;
76995;SDS011;65929;49.062;10.338;2023-04-15T03:01:25;5.47;;;3.63;;
76995;SDS011;65929;49.062;10.338;2023-04-15T03:02:26;5.40;;;3.25;;
76995;SDS011;65929;49.062;10.338;2023-04-15T03:03:27;5.88;;;3.47;;
76995;SDS011;65929;49.062;10.338;2023-04-15T03:04:28;6.45;;;4.00;;
76995;SDS011;65929;49.062;10.338;2023-04-15T03:05:30;6.25;;;3.92;;
76995;SDS011;65929;49.062;10.338;2023-04-15T03:06:31;5.72;;;3.40;;
76995;SDS011;65929;49.062;10.338;2023-04-15T03:07:32;5.75;;;3.90;;
76995;SDS011;65929;49.062;10.338;2023-04-15T03:08:33;5.90;;;4.13;;
76995;SDS011;65929;49.062;10.338;2023-04-15T03:09:34;6.57;;;3.78;;
76995;SDS011;65929;49.062;10.338;2023-04-15T03:10:35;5.78;;;3.55;;
76995;SDS011;65929;49.062;10.338;2023-04-15T03:11:36;7.45;;;3.90;;
76995;SDS011;65929;49.062;10.338;2023-04-15T03:12:39;5.93;;;3.55;;
76995;SDS011;65929;49.062;10.338;2023-04-15T03:13:42;5.65;;;3.38;;
76995;SDS011;65929;49.062;10.338;2023-04-15T03:14:43;5.18;;;3.33;;
76995;SDS011;65929;49.062;10.338;2023-04-15T03:15:45;6.25;;;4.03;;
76995;SDS011;65929;49.062;10.338;2023-04-15T03:16:46;6.25;;;3.53;;
76995;SDS011;65929;49.062;10.338;2023-04-15T03:17:49;5.95;;;3.20;;
76995;SDS011;65929;49.062;10.338;2023-04-15T03:18:50;5.85;;;3.70;;
76995;SDS011;65929;49.062;10.338;2023-04-15T03:19:51;5.80;;;3.63;;
76995;SDS011;65929;49.062;10.338;2023-04-15T03:20:52;6.47;;;4.00;;
76995;SDS011;65929;49.062;10.338;2023-04-15T03:21:53;8.07;;;3.58;;
76995;SDS011;65929;49.062;10.338;2023-04-15T03:22:54;4.78;;;3.30;;
76995;SDS011;65929;49.062;10.338;2023-04-15T03:23:55;6.25;;;3.70;;
76995;SDS011;65929;49.062;10.338;2023-04-15T03:24:56;7.78;;;4.05;;
76995;SDS011;65929;49.062;10.338;2023-04-15T03:26:00;8.80;;;4.20;;
76995;SDS011;65929;49.062;10.338;2023-04-15T03:27:01;7.47;;;3.90;;
76995;SDS011;65929;49.062;10.338;2023-04-15T03:28:02;5.63;;;3.63;;
76995;SDS011;65929;49.062;10.338;2023-04-15T03:29:05;7.30;;;4.40;;
76995;SDS011;65929;49.062;10.338;2023-04-15T03:30:06;5.00;;;3.30;;
76995;SDS011;65929;49.062;10.338;2023-04-15T03:31:08;5.90;;;3.60;;
76995;SDS011;65929;49.062;10.338;2023-04-15T03:32:09;5.50;;;3.65;;
76995;SDS011;65929;49.062;10.338;2023-04-15T03:33:11;5.80;;;3.70;;
76995;SDS011;65929;49.062;10.338;2023-04-15T03:34:12;6.03;;;3.80;;
76995;SDS011;65929;49.062;10.338;2023-04-15T03:35:13;7.25;;;4.10;;
76995;SDS011;65929;49.062;10.338;2023-04-15T03:36:16;5.82;;;3.80;;
76995;SDS011;65929;49.062;10.338;2023-04-15T03:37:17;6.43;;;3.60;;
76995;SDS011;65929;49.062;10.338;2023-04-15T03:38:17;8.05;;;3.95;;
76995;SDS011;65929;49.062;10.338;2023-04-15T03:39:18;7.05;;;4.00;;
76995;SDS011;65929;49.062;10.338;2023-04-15T03:40:20;6.68;;;4.00;;
76995;SDS011;65929;49.062;10.338;2023-04-15T03:41:21;5.95;;;3.58;;
76995;SDS011;65929;49.062;10.338;2023-04-15T03:42:22;6.55;;;3.97;;
76995;SDS011;65929;49.062;10.338;2023-04-15T03:43:23;6.93;;;3.47;;
76995;SDS011;65929;49.062;10.338;2023-04-15T03:44:26;6.60;;;3.95;;
76995;SDS011;65929;49.062;10.338;2023-04-15T03:45:27;8.25;;;3.83;;
76995;SDS011;65929;49.062;10.338;2023-04-15T03:46:28;6.22;;;3.75;;
76995;SDS011;65929;49.062;10.338;2023-04-15T03:47:29;5.75;;;3.40;;
76995;SDS011;65929;49.062;10.338;2023-04-15T03:48:30;6.35;;;4.07;;
76995;SDS011;65929;49.062;10.338;2023-04-15T03:49:31;7.22;;;3.90;;
76995;SDS011;65929;49.062;10.338;2023-04-15T03:50:32;7.00;;;3.75;;
76995;SDS011;65929;49.062;10.338;2023-04-15T03:51:33;6.75;;;3.78;;
76995;SDS011;65929;49.062;10.338;2023-04-15T03:52:34;6.00;;;3.70;;
76995;SDS011;65929;49.062;10.338;2023-04-15T03:53:35;5.88;;;3.92;;
76995;SDS011;65929;49.062;10.338;2023-04-15T03:54:36;7.78;;;4.15;;
76995;SDS011;65929;49.062;10.338;2023-04-15T03:55:37;6.65;;;4.43;;
76995;SDS011;65929;49.062;10.338;2023-04-15T03:56:38;7.40;;;4.60;;
76995;SDS011;65929;49.062;10.338;2023-04-15T03:57:39;7.05;;;3.88;;
76995;SDS011;65929;49.062;10.338;2023-04-15T03:58:40;6.47;;;3.63;;
76995;SDS011;65929;49.062;10.338;2023-04-15T03:59:42;6.82;;;3.95;;
76995;SDS011;65929;49.062;10.338;2023-04-15T04:00:43;6.85;;;4.10;;
76995;SDS011;65929;49.062;10.338;2023-04-15T04:01:44;6.07;;;3.88;;
76995;SDS011;65929;49.062;10.338;2023-04-15T04:02:45;5.43;;;3.75;;
76995;SDS011;65929;49.062;10.338;2023-04-15T04:03:46;6.35;;;3.75;;
76995;SDS011;65929;49.062;10.338;2023-04-15T04:04:47;6.50;;;3.85;;
76995;SDS011;65929;49.062;10.338;2023-04-15T04:05:48;5.25;;;4.15;;
76995;SDS011;65929;49.062;10.338;2023-04-15T04:06:50;5.97;;;3.55;;
76995;SDS011;65929;49.062;10.338;2023-04-15T04:07:51;6.32;;;3.88;;
76995;SDS011;65929;49.062;10.338;2023-04-15T04:08:51;5.78;;;3.92;;
76995;SDS011;65929;49.062;10.338;2023-04-15T04:09:52;6.57;;;3.50;;
76995;SDS011;65929;49.062;10.338;2023-04-15T04:10:53;10.55;;;3.70;;
76995;SDS011;65929;49.062;10.338;2023-04-15T04:11:55;6.82;;;4.10;;
76995;SDS011;65929;49.062;10.338;2023-04-15T04:12:56;6.78;;;3.40;;
76995;SDS011;65929;49.062;10.338;2023-04-15T04:13:57;6.32;;;3.60;;
76995;SDS011;65929;49.062;10.338;2023-04-15T04:15:00;5.82;;;3.42;;
76995;SDS011;65929;49.062;10.338;2023-04-15T04:16:01;5.88;;;3.35;;
76995;SDS011;65929;49.062;10.338;2023-04-15T04:17:03;5.68;;;3.42;;
76995;SDS011;65929;49.062;10.338;2023-04-15T04:18:04;5.32;;;3.63;;
76995;SDS011;65929;49.062;10.338;2023-04-15T04:19:05;7.15;;;4.07;;
76995;SDS011;65929;49.062;10.338;2023-04-15T04:20:07;8.02;;;3.95;;
76995;SDS011;65929;49.062;10.338;2023-04-15T04:21:08;8.20;;;3.70;;
76995;SDS011;65929;49.062;10.338;2023-04-15T04:22:09;6.57;;;4.28;;
76995;SDS011;65929;49.062;10.338;2023-04-15T04:23:11;7.15;;;3.72;;
76995;SDS011;65929;49.062;10.338;2023-04-15T04:24:12;6.97;;;3.97;;
76995;SDS011;65929;49.062;10.338;2023-04-15T04:25:13;6.70;;;3.90;;
76995;SDS011;65929;49.062;10.338;2023-04-15T04:26:14;5.88;;;3.72;;
76995;SDS011;65929;49.062;10.338;2023-04-15T04:27:15;7.20;;;3.63;;
76995;SDS011;65929;49.062;10.338;2023-04-15T04:28:16;7.75;;;4.43;;
76995;SDS011;65929;49.062;10.338;2023-04-15T04:29:17;6.10;;;3.85;;
76995;SDS011;65929;49.062;10.338;2023-04-15T04:30:19;5.60;;;3.53;;
76995;SDS011;65929;49.062;10.338;2023-04-15T04:31:20;6.22;;;3.72;;
76995;SDS011;65929;49.062;10.338;2023-04-15T04:32:21;6.25;;;3.83;;
76995;SDS011;65929;49.062;10.338;2023-04-15T04:33:22;6.90;;;3.92;;
76995;SDS011;65929;49.062;10.338;2023-04-15T04:34:23;6.60;;;3.63;;
76995;SDS011;65929;49.062;10.338;2023-04-15T04:35:24;7.68;;;4.07;;
76995;SDS011;65929;49.062;10.338;2023-04-15T04:36:25;8.00;;;4.13;;
76995;SDS011;65929;49.062;10.338;2023-04-15T04:37:26;6.55;;;4.25;;
76995;SDS011;65929;49.062;10.338;2023-04-15T04:38:27;7.22;;;4.40;;
76995;SDS011;65929;49.062;10.338;2023-04-15T04:39:28;6.10;;;3.60;;
76995;SDS011;65929;49.062;10.338;2023-04-15T04:40:29;8.23;;;4.75;;
76995;SDS011;65929;49.062;10.338;2023-04-15T04:41:30;9.73;;;5.05;;
76995;SDS011;65929;49.062;10.338;2023-04-15T04:42:31;9.45;;;5.30;;
76995;SDS011;65929;49.062;10.338;2023-04-15T04:43:32;10.13;;;5.90;;
76995;SDS011;65929;49.062;10.338;2023-04-15T04:44:33;9.57;;;5.20;;
76995;SDS011;65929;49.062;10.338;2023-04-15T04:45:36;9.13;;;5.68;;
76995;SDS011;65929;49.062;10.338;2023-04-15T04:46:36;10.23;;;5.53;;
76995;SDS011;65929;49.062;10.338;2023-04-15T04:47:37;8.75;;;4.47;;
76995;SDS011;65929;49.062;10.338;2023-04-15T04:48:38;10.93;;;5.55;;
76995;SDS011;65929;49.062;10.338;2023-04-15T04:49:40;8.85;;;5.32;;
76995;SDS011;65929;49.062;10.338;2023-04-15T04:50:41;9.73;;;5.60;;
76995;SDS011;65929;49.062;10.338;2023-04-15T04:51:42;10.93;;;5.57;;
76995;SDS011;65929;49.062;10.338;2023-04-15T04:52:43;9.82;;;5.00;;
76995;SDS011;65929;49.062;10.338;2023-04-15T04:53:44;8.88;;;4.60;;
76995;SDS011;65929;49.062;10.338;2023-04-15T04:54:45;9.75;;;5.15;;
76995;SDS011;65929;49.062;10.338;2023-04-15T04:55:46;7.88;;;4.30;;
76995;SDS011;65929;49.062;10.338;2023-04-15T04:56:47;8.77;;;5.05;;
76995;SDS011;65929;49.062;10.338;2023-04-15T04:57:48;7.40;;;4.65;;
76995;SDS011;65929;49.062;10.338;2023-04-15T04:58:49;6.72;;;4.40;;
76995;SDS011;65929;49.062;10.338;2023-04-15T04:59:50;8.27;;;4.72;;
76995;SDS011;65929;49.062;10.338;2023-04-15T05:00:53;6.35;;;4.13;;
76995;SDS011;65929;49.062;10.338;2023-04-15T05:01:53;8.02;;;4.47;;
76995;SDS011;65929;49.062;10.338;2023-04-15T05:02:55;8.20;;;4.75;;
76995;SDS011;65929;49.062;10.338;2023-04-15T05:03:55;6.53;;;4.13;;
76995;SDS011;65929;49.062;10.338;2023-04-15T05:04:56;7.80;;;4.53;;
76995;SDS011;65929;49.062;10.338;2023-04-15T05:05:57;9.00;;;4.68;;
76995;SDS011;65929;49.062;10.338;2023-04-15T05:06:58;7.40;;;4.78;;
76995;SDS011;65929;49.062;10.338;2023-04-15T05:07:59;8.48;;;4.03;;
76995;SDS011;65929;49.062;10.338;2023-04-15T05:09:00;8.65;;;4.60;;
76995;SDS011;65929;49.062;10.338;2023-04-15T05:10:02;6.57;;;3.97;;
76995;SDS011;65929;49.062;10.338;2023-04-15T05:11:03;7.65;;;4.38;;
76995;SDS011;65929;49.062;10.338;2023-04-15T05:12:05;7.53;;;4.60;;
76995;SDS011;65929;49.062;10.338;2023-04-15T05:13:08;9.32;;;4.97;;
76995;SDS011;65929;49.062;10.338;2023-04-15T05:14:08;9.35;;;5.10;;
76995;SDS011;65929;49.062;10.338;2023-04-15T05:15:09;7.25;;;4.78;;
76995;SDS011;65929;49.062;10.338;2023-04-15T05:16:12;7.40;;;4.53;;
76995;SDS011;65929;49.062;10.338;2023-04-15T05:17:13;7.10;;;4.38;;
76995;SDS011;65929;49.062;10.338;2023-04-15T05:18:14;6.85;;;4.18;;
76995;SDS011;65929;49.062;10.338;2023-04-15T05:19:15;6.90;;;4.30;;
76995;SDS011;65929;49.062;10.338;2023-04-15T05:20:16;8.55;;;4.78;;
76995;SDS011;65929;49.062;10.338;2023-04-15T05:21:17;7.25;;;4.57;;
76995;SDS011;65929;49.062;10.338;2023-04-15T05:22:18;6.53;;;3.70;;
76995;SDS011;65929;49.062;10.338;2023-04-15T05:23:19;8.35;;;4.70;;
76995;SDS011;65929;49.062;10.338;2023-04-15T05:24:20;8.60;;;5.13;;
76995;SDS011;65929;49.062;10.338;2023-04-15T05:25:22;6.72;;;4.68;;
76995;SDS011;65929;49.062;10.338;2023-04-15T05:26:23;7.78;;;4.30;;
76995;SDS011;65929;49.062;10.338;2023-04-15T05:27:24;8.50;;;5.28;;
76995;SDS011;65929;49.062;10.338;2023-04-15T05:28:25;9.15;;;4.68;;
76995;SDS011;65929;49.062;10.338;2023-04-15T05:29:26;9.95;;;5.00;;
76995;SDS011;65929;49.062;10.338;2023-04-15T05:30:27;7.20;;;4.80;;
76995;SDS011;65929;49.062;10.338;2023-04-15T05:31:29;7.55;;;4.18;;
76995;SDS011;65929;49.062;10.338;2023-04-15T05:32:30;6.75;;;4.13;;
76995;SDS011;65929;49.062;10.338;2023-04-15T05:33:31;5.63;;;3.70;;
76995;SDS011;65929;49.062;10.338;2023-04-15T05:34:32;5.68;;;3.78;;
76995;SDS011;65929;49.062;10.338;2023-04-15T05:35:33;5.72;;;3.75;;
76995;SDS011;65929;49.062;10.338;2023-04-15T05:36:34;6.53;;;4.13;;
76995;SDS011;65929;49.062;10.338;2023-04-15T05:37:35;5.90;;;3.45;;
76995;SDS011;65929;49.062;10.338;2023-04-15T05:38:36;6.88;;;3.70;;
76995;SDS011;65929;49.062;10.338;2023-04-15T05:39:37;6.40;;;3.72;;
76995;SDS011;65929;49.062;10.338;2023-04-15T05:40:38;7.50;;;3.58;;
76995;SDS011;65929;49.062;10.338;2023-04-15T05:41:39;6.47;;;3.67;;
76995;SDS011;65929;49.062;10.338;2023-04-15T05:42:40;5.70;;;3.90;;
76995;SDS011;65929;49.062;10.338;2023-04-15T05:43:41;5.70;;;3.63;;
76995;SDS011;65929;49.062;10.338;2023-04-15T05:44:42;6.38;;;4.25;;
76995;SDS011;65929;49.062;10.338;2023-04-15T05:45:43;7.20;;;4.05;;
76995;SDS011;65929;49.062;10.338;2023-04-15T05:46:49;7.80;;;4.00;;
76995;SDS011;65929;49.062;10.338;2023-04-15T05:47:50;6.75;;;4.20;;
76995;SDS011;65929;49.062;10.338;2023-04-15T05:48:53;7.50;;;4.13;;
76995;SDS011;65929;49.062;10.338;2023-04-15T05:49:53;6.60;;;3.85;;
76995;SDS011;65929;49.062;10.338;2023-04-15T05:50:54;6.38;;;3.83;;
76995;SDS011;65929;49.062;10.338;2023-04-15T05:51:55;6.97;;;4.57;;
76995;SDS011;65929;49.062;10.338;2023-04-15T05:52:56;7.32;;;4.28;;
76995;SDS011;65929;49.062;10.338;2023-04-15T05:53:57;7.10;;;4.63;;
76995;SDS011;65929;49.062;10.338;2023-04-15T05:54:58;6.10;;;4.13;;
76995;SDS011;65929;49.062;10.338;2023-04-15T05:55:59;5.75;;;3.80;;
76995;SDS011;65929;49.062;10.338;2023-04-15T05:57:00;5.70;;;3.78;;
76995;SDS011;65929;49.062;10.338;2023-04-15T05:58:04;6.88;;;4.20;;
76995;SDS011;65929;49.062;10.338;2023-04-15T05:59:05;8.57;;;5.32;;
76995;SDS011;65929;49.062;10.338;2023-04-15T06:00:06;8.55;;;5.38;;
76995;SDS011;65929;49.062;10.338;2023-04-15T06:01:09;7.97;;;5.75;;
76995;SDS011;65929;49.062;10.338;2023-04-15T06:02:12;8.90;;;4.97;;
76995;SDS011;65929;49.062;10.338;2023-04-15T06:03:13;10.65;;;5.60;;
76995;SDS011;65929;49.062;10.338;2023-04-15T06:04:14;9.40;;;5.32;;